createdAt,value
2022-08-09T00:00:04.196Z,-23795.16
2022-08-09T00:02:11.110Z,-23794.53
2022-08-09T00:04:33.736Z,-23794.66
2022-08-09T00:06:36.519Z,-23791.53
2022-08-09T00:08:39.144Z,-23787.75
2022-08-09T00:10:41.967Z,-23786.81
2022-08-09T00:12:44.619Z,-23788.25
2022-08-09T00:14:48.360Z,-23787.63
2022-08-09T00:16:57.081Z,-23782.44
2022-08-09T00:19:01.321Z,-23779.44
2022-08-09T00:21:07.793Z,-23780.53
2022-08-09T00:23:57.368Z,-23778.19
2022-08-09T00:25:34.015Z,-23780.88
2022-08-09T00:27:42.952Z,-23777.09
2022-08-09T00:30:25.396Z,-23776.63
2022-08-09T00:32:08.795Z,-23772.22
2022-08-09T00:34:19.478Z,-23771.13
2022-08-09T00:36:29.691Z,-23765.63
2022-08-09T00:38:33.492Z,-23760.59
2022-08-09T00:40:38.050Z,-23757.44
2022-08-09T00:44:14.999Z,-23755.88
2022-08-09T00:45:16.075Z,-23755.72
2022-08-09T00:47:19.859Z,-23755.88
2022-08-09T00:49:24.002Z,-23756.19
2022-08-09T00:51:34.042Z,-23753.03
2022-08-09T00:53:46.500Z,-23756.03
2022-08-09T00:56:04.392Z,-23753.03
2022-08-09T00:58:14.655Z,-23754.00
2022-08-09T01:00:24.786Z,-23751.78
2022-08-09T01:02:31.623Z,-23751.78
2022-08-09T01:04:48.074Z,-23755.25
2022-08-09T01:07:01.966Z,-23750.22
2022-08-09T01:09:18.092Z,-23752.72
2022-08-09T01:11:33.295Z,-23757.44
2022-08-09T01:13:59.494Z,-23757.75
2022-08-09T01:16:06.844Z,-23755.25
2022-08-09T01:18:14.308Z,-23755.56
2022-08-09T01:20:25.815Z,-23756.81
2022-08-09T01:24:00.861Z,-23754.00
2022-08-09T01:26:05.426Z,-23758.72
2022-08-09T01:28:11.356Z,-23757.13
2022-08-09T01:30:35.494Z,-23760.28
2022-08-09T01:32:46.174Z,-23761.53
2022-08-09T01:34:52.127Z,-23759.66
2022-08-09T01:36:58.788Z,-23755.09
2022-08-09T01:39:02.672Z,-23754.31
2022-08-09T01:41:10.590Z,-23744.56
2022-08-09T01:43:15.633Z,-23737.94
2022-08-09T01:45:20.470Z,-23731.97
2022-08-09T01:47:26.443Z,-23733.38
2022-08-09T01:49:38.991Z,-23735.13
2022-08-09T01:51:53.771Z,-23730.25
2022-08-09T01:53:59.510Z,-23735.13
2022-08-09T01:56:05.867Z,-23736.69
2022-08-09T01:58:10.543Z,-23733.69
2022-08-09T02:00:34.833Z,-23734.19
2022-08-09T02:02:41.689Z,-23733.56
2022-08-09T02:04:45.586Z,-23735.13
2022-08-09T02:07:18.436Z,-23733.69
2022-08-09T02:09:42.628Z,-23730.41
2022-08-09T02:11:46.192Z,-23725.38
2022-08-09T02:13:55.483Z,-23724.72
2022-08-09T02:16:13.488Z,-23725.38
2022-08-09T02:18:19.339Z,-23722.22
2022-08-09T02:20:25.077Z,-23727.88
2022-08-09T02:22:36.744Z,-23725.22
2022-08-09T02:24:51.958Z,-23724.44
2022-08-09T02:26:58.709Z,-23728.03
2022-08-09T02:29:07.774Z,-23727.56
2022-08-09T02:31:16.817Z,-23725.38
2022-08-09T02:33:38.223Z,-23719.88
2022-08-09T02:36:01.902Z,-23722.84
2022-08-09T02:38:07.828Z,-23728.97
2022-08-09T02:40:18.515Z,-23730.25
2022-08-09T02:42:34.859Z,-23726.94
2022-08-09T02:44:42.190Z,-23726.63
2022-08-09T02:46:47.681Z,-23724.44
2022-08-09T02:48:57.346Z,-23723.16
2022-08-09T02:51:02.654Z,-23724.44
2022-08-09T02:53:10.241Z,-23726.94
2022-08-09T02:55:46.426Z,-23725.22
2022-08-09T02:58:00.625Z,-23721.91
2022-08-09T03:00:25.106Z,-23720.97
2022-08-09T03:02:32.205Z,-23722.22
2022-08-09T03:04:39.006Z,-23719.38
2022-08-09T03:06:43.546Z,-23718.13
2022-08-09T03:08:50.410Z,-23713.72
2022-08-09T03:10:56.628Z,-23715.59
2022-08-09T03:13:03.807Z,-23716.53
2022-08-09T03:15:13.238Z,-23718.13
2022-08-09T03:17:26.607Z,-23718.59
2022-08-09T03:19:57.860Z,-23712.47
2022-08-09T03:21:58.047Z,-23711.34
2022-08-09T03:24:04.817Z,-23709.00
2022-08-09T03:26:08.473Z,-23706.47
2022-08-09T03:28:11.577Z,-23711.50
2022-08-09T03:30:29.980Z,-23708.69
2022-08-09T03:32:37.788Z,-23708.53
2022-08-09T03:34:42.586Z,-23708.69
2022-08-09T03:36:59.551Z,-23704.75
2022-08-09T03:39:02.912Z,-23703.63
2022-08-09T03:41:05.995Z,-23701.44
2022-08-09T03:43:08.707Z,-23703.34
2022-08-09T03:45:15.397Z,-23706.47
2022-08-09T03:47:18.407Z,-23708.69
2022-08-09T03:49:23.942Z,-23706.47
2022-08-09T03:51:55.661Z,-23707.09
2022-08-09T03:53:54.451Z,-23699.88
2022-08-09T03:55:57.480Z,-23697.66
2022-08-09T03:58:06.519Z,-23702.69
2022-08-09T04:00:19.729Z,-23702.69
2022-08-09T04:02:26.647Z,-23697.97
2022-08-09T04:04:38.854Z,-23694.66
2022-08-09T04:06:44.011Z,-23697.66
2022-08-09T04:08:53.458Z,-23695.44
2022-08-09T04:10:56.384Z,-23694.19
2022-08-09T04:13:09.491Z,-23697.34
2022-08-09T04:15:17.176Z,-23699.06
2022-08-09T04:17:32.478Z,-23696.72
2022-08-09T04:19:43.245Z,-23697.66
2022-08-09T04:21:55.358Z,-23692.94
2022-08-09T04:24:00.229Z,-23698.44
2022-08-09T04:26:02.889Z,-23700.81
2022-08-09T04:28:06.305Z,-23702.38
2022-08-09T04:30:12.130Z,-23703.47
2022-08-09T04:32:15.225Z,-23703.34
2022-08-09T04:34:18.860Z,-23704.91
2022-08-09T04:36:24.250Z,-23705.06
2022-08-09T04:38:28.559Z,-23706.78
2022-08-09T04:40:48.148Z,-23702.38
2022-08-09T04:42:57.066Z,-23704.75
2022-08-09T04:45:01.141Z,-23706.78
2022-08-09T04:47:06.314Z,-23710.25
2022-08-09T04:49:09.363Z,-23711.50
2022-08-09T04:51:17.560Z,-23712.16
2022-08-09T04:53:22.951Z,-23712.47
2022-08-09T04:55:26.999Z,-23718.13
2022-08-09T04:57:58.828Z,-23727.88
2022-08-09T05:00:06.145Z,-23734.81
2022-08-09T05:02:10.607Z,-23729.47
2022-08-09T05:04:15.853Z,-23725.69
2022-08-09T05:06:25.867Z,-23725.53
2022-08-09T05:08:30.120Z,-23725.06
2022-08-09T05:10:36.782Z,-23723.31
2022-08-09T05:12:39.659Z,-23720.19
2022-08-09T05:14:42.644Z,-23722.84
2022-08-09T05:16:59.030Z,-23724.72
2022-08-09T05:19:02.866Z,-23731.34
2022-08-09T05:21:20.744Z,-23736.53
2022-08-09T05:23:53.843Z,-23735.59
2022-08-09T05:25:50.690Z,-23739.06
2022-08-09T05:27:55.418Z,-23738.56
2022-08-09T05:29:59.081Z,-23746.13
2022-08-09T05:32:01.847Z,-23745.81
2022-08-09T05:34:05.291Z,-23748.31
2022-08-09T05:36:09.112Z,-23753.38
2022-08-09T05:38:21.641Z,-23756.50
2022-08-09T05:40:25.825Z,-23758.38
2022-08-09T05:42:29.826Z,-23759.00
2022-08-09T05:44:34.915Z,-23762.78
2022-08-09T05:46:38.556Z,-23769.69
2022-08-09T05:48:41.853Z,-23767.50
2022-08-09T05:50:57.078Z,-23768.59
2022-08-09T05:53:11.803Z,-23765.00
2022-08-09T05:55:31.512Z,-23767.66
2022-08-09T05:57:56.061Z,-23768.13
2022-08-09T05:59:58.264Z,-23770.81
2022-08-09T06:02:00.962Z,-23770.34
2022-08-09T06:04:05.754Z,-23775.34
2022-08-09T06:06:08.883Z,-23777.09
2022-08-09T06:08:12.284Z,-23783.69
2022-08-09T06:10:15.936Z,-23784.16
2022-08-09T06:12:20.792Z,-23794.19
2022-08-09T06:14:25.929Z,-23798.28
2022-08-09T06:16:29.525Z,-23803.00
2022-08-09T06:18:32.946Z,-23812.72
2022-08-09T06:20:36.165Z,-23810.53
2022-08-09T06:22:40.018Z,-23826.84
2022-08-09T06:24:42.691Z,-23835.94
2022-08-09T06:26:45.405Z,-23844.41
2022-08-09T06:28:48.072Z,-23852.69
2022-08-09T06:30:52.396Z,-23858.50
2022-08-09T06:33:00.456Z,-23859.75
2022-08-09T06:35:16.187Z,-23884.16
2022-08-09T06:37:18.871Z,-23873.53
2022-08-09T06:39:21.553Z,-23873.38
2022-08-09T06:41:39.718Z,-23889.50
2022-08-09T06:43:48.312Z,-23873.69
2022-08-09T06:46:06.745Z,-23869.94
2022-08-09T06:48:16.617Z,-23868.84
2022-08-09T06:50:31.160Z,-23890.13
2022-08-09T06:52:34.641Z,-23897.00
2022-08-09T06:54:37.529Z,-23897.63
2022-08-09T06:56:45.547Z,-23919.19
2022-08-09T07:00:51.082Z,-23932.00
2022-08-09T07:01:14.458Z,-23954.34
2022-08-09T07:03:18.858Z,-23936.53
2022-08-09T07:05:21.539Z,-23928.28
2022-08-09T07:07:58.468Z,-23912.16
2022-08-09T07:09:55.892Z,-23930.44
2022-08-09T07:12:01.516Z,-23909.66
2022-08-09T07:14:06.242Z,-23911.53
2022-08-09T07:16:39.348Z,-23930.75
2022-08-09T07:18:33.688Z,-23925.28
2022-08-09T07:20:36.345Z,-23935.13
2022-08-09T07:22:46.381Z,-23943.41
2022-08-09T07:24:55.204Z,-23949.81
2022-08-09T07:26:57.865Z,-23932.00
2022-08-09T07:29:12.139Z,-23938.56
2022-08-09T07:31:16.183Z,-23954.03
2022-08-09T07:33:19.447Z,-23970.41
2022-08-09T07:35:25.688Z,-23977.75
2022-08-09T07:37:28.483Z,-24001.59
2022-08-09T07:39:42.168Z,-23962.44
2022-08-09T07:41:45.267Z,-23970.88
2022-08-09T07:43:49.827Z,-24004.41
2022-08-09T07:46:03.008Z,-24005.63
2022-08-09T07:48:06.412Z,-24027.75
2022-08-09T07:50:09.707Z,-24033.03
2022-08-09T07:52:17.852Z,-24022.63
2022-08-09T07:54:30.287Z,-24016.53
2022-08-09T07:56:34.207Z,-23967.13
2022-08-09T07:58:37.008Z,-24014.97
2022-08-09T08:00:55.656Z,-24006.88
2022-08-09T08:03:04.662Z,-24035.22
2022-08-09T08:05:18.884Z,-23969.78
2022-08-09T08:08:43.694Z,-24019.34
2022-08-09T08:09:51.575Z,-24012.19
2022-08-09T08:12:09.978Z,-24070.19
2022-08-09T08:14:17.256Z,-24021.84
2022-08-09T08:16:29.809Z,-24025.25
2022-08-09T08:18:34.991Z,-23994.56
2022-08-09T08:20:39.788Z,-24013.44
2022-08-09T08:22:48.498Z,-24047.34
2022-08-09T08:24:55.878Z,-24047.66
2022-08-09T08:27:00.185Z,-24070.34
2022-08-09T08:29:02.887Z,-24009.38
2022-08-09T08:31:13.970Z,-24001.13
2022-08-09T08:33:24.377Z,-24035.53
2022-08-09T08:35:36.976Z,-24020.91
2022-08-09T08:38:01.826Z,-24050.31
2022-08-09T08:40:08.670Z,-24035.84
2022-08-09T08:42:11.744Z,-23995.34
2022-08-09T08:44:15.041Z,-24038.03
2022-08-09T08:46:32.336Z,-24024.47
2022-08-09T08:48:38.323Z,-24078.13
2022-08-09T08:50:54.245Z,-24066.31
2022-08-09T08:53:00.506Z,-24076.88
2022-08-09T08:55:04.090Z,-24040.66
2022-08-09T08:57:11.625Z,-24043.63
2022-08-09T08:59:18.971Z,-24103.59
2022-08-09T09:01:24.909Z,-24126.53
2022-08-09T09:03:39.251Z,-24100.78
2022-08-09T09:05:59.742Z,-24116.00
2022-08-09T09:08:10.513Z,-24128.09
2022-08-09T09:10:33.045Z,-24116.00
2022-08-09T09:12:36.531Z,-24112.72
2022-08-09T09:14:40.283Z,-24103.13
2022-08-09T09:16:44.171Z,-24127.16
2022-08-09T09:18:54.900Z,-24098.00
2022-08-09T09:21:08.137Z,-24098.47
2022-08-09T09:23:14.117Z,-24091.47
2022-08-09T09:26:01.002Z,-24112.88
2022-08-09T09:28:05.211Z,-24094.88
2022-08-09T09:30:40.020Z,-24112.88
2022-08-09T09:32:37.247Z,-24112.25
2022-08-09T09:34:44.724Z,-24147.28
2022-08-09T09:36:53.246Z,-24102.03
2022-08-09T09:38:58.619Z,-24134.91
2022-08-09T09:41:01.306Z,-24099.88
2022-08-09T09:43:07.191Z,-24120.66
2022-08-09T09:45:26.480Z,-24104.81
2022-08-09T09:47:32.682Z,-24101.09
2022-08-09T09:50:13.836Z,-24115.84
2022-08-09T09:52:04.969Z,-24123.28
2022-08-09T09:54:20.702Z,-24117.53
2022-08-09T09:56:33.682Z,-24129.31
2022-08-09T09:58:47.526Z,-24133.97
2022-08-09T10:00:54.920Z,-24146.66
2022-08-09T10:03:01.100Z,-24156.91
2022-08-09T10:05:14.675Z,-24141.25
2022-08-09T10:07:26.261Z,-24175.16
2022-08-09T10:09:48.780Z,-24147.59
2022-08-09T10:12:07.726Z,-24134.75
2022-08-09T10:14:27.240Z,-24085.75
2022-08-09T10:16:56.870Z,-24119.41
2022-08-09T10:18:56.873Z,-24099.09
2022-08-09T10:21:09.598Z,-24116.28
2022-08-09T10:23:19.985Z,-24144.19
2022-08-09T10:25:24.932Z,-24098.31
2022-08-09T10:27:38.893Z,-24123.75
2022-08-09T10:30:29.981Z,-24136.31
2022-08-09T10:32:42.253Z,-24115.38
2022-08-09T10:34:47.168Z,-24080.28
2022-08-09T10:36:56.648Z,-24080.59
2022-08-09T10:39:00.434Z,-24080.91
2022-08-09T10:41:05.111Z,-24087.28
2022-08-09T10:43:13.061Z,-24058.53
2022-08-09T10:45:18.756Z,-24064.44
2022-08-09T10:48:26.033Z,-24031.34
2022-08-09T10:50:14.730Z,-24015.59
2022-08-09T10:52:30.516Z,-24044.25
2022-08-09T10:54:33.296Z,-24064.44
2022-08-09T10:56:39.514Z,-24040.81
2022-08-09T10:58:42.883Z,-24056.69
2022-08-09T11:01:10.654Z,-24034.28
2022-08-09T11:03:51.829Z,-24049.53
2022-08-09T11:06:19.497Z,-24065.22
2022-08-09T11:08:47.120Z,-24048.13
2022-08-09T11:10:59.881Z,-24042.06
2022-08-09T11:13:49.084Z,-24031.78
2022-08-09T11:15:38.620Z,-24031.19
2022-08-09T11:18:03.878Z,-24041.13
2022-08-09T11:20:19.817Z,-24048.75
2022-08-09T11:23:07.029Z,-24078.44
2022-08-09T11:25:11.478Z,-24072.53
2022-08-09T11:28:04.751Z,-24060.25
2022-08-09T11:30:04.930Z,-24051.09
2022-08-09T11:32:10.515Z,-24075.63
2022-08-09T11:34:32.711Z,-24076.25
2022-08-09T11:36:42.602Z,-24063.22
2022-08-09T11:39:01.291Z,-24050.94
2022-08-09T11:41:22.503Z,-24057.44
2022-08-09T11:43:43.353Z,-24055.44
2022-08-09T11:45:57.626Z,-24064.44
2022-08-09T11:48:08.091Z,-24064.13
2022-08-09T11:50:56.689Z,-24057.44
2022-08-09T11:54:01.091Z,-24062.28
2022-08-09T11:55:53.865Z,-24059.16
2022-08-09T11:58:30.289Z,-24059.63
2022-08-09T12:00:48.045Z,-24057.44
2022-08-09T12:02:57.445Z,-24067.88
2022-08-09T12:05:00.694Z,-24069.72
2022-08-09T12:07:08.543Z,-24053.56
2022-08-09T12:09:15.321Z,-24068.97
2022-08-09T12:11:25.454Z,-24055.13
2022-08-09T12:14:10.791Z,-24055.75
2022-08-09T12:16:04.699Z,-24074.25
2022-08-09T12:18:30.121Z,-24080.59
2022-08-09T12:20:36.765Z,-24075.94
2022-08-09T12:22:39.710Z,-24076.41
2022-08-09T12:24:43.579Z,-24082.63
2022-08-09T12:29:13.165Z,-24055.28
2022-08-09T12:29:33.643Z,-24055.44
2022-08-09T12:32:02.343Z,-24068.03
2022-08-09T12:34:05.180Z,-24079.66
2022-08-09T12:36:15.427Z,-24079.06
2022-08-09T12:38:38.152Z,-24090.53
2022-08-09T12:40:45.535Z,-24087.13
2022-08-09T12:42:50.461Z,-24095.81
2022-08-09T12:44:54.524Z,-24080.13
2022-08-09T12:46:58.896Z,-24070.66
2022-08-09T12:49:04.232Z,-24072.06
2022-08-09T12:51:07.321Z,-24067.25
2022-08-09T12:53:32.369Z,-24060.72
2022-08-09T12:56:16.286Z,-24048.44
2022-08-09T12:58:24.312Z,-24051.09
2022-08-09T13:00:34.500Z,-24055.44
2022-08-09T13:02:49.059Z,-24065.84
2022-08-09T13:05:03.896Z,-24065.06
2022-08-09T13:07:16.234Z,-24064.44
2022-08-09T13:09:30.598Z,-24059.94
2022-08-09T13:11:39.585Z,-24059.47
2022-08-09T13:14:37.055Z,-24064.00
2022-08-09T13:16:09.514Z,-24062.59
2022-08-09T13:18:17.536Z,-24059.16
2022-08-09T13:20:37.411Z,-24059.94
2022-08-09T13:23:05.463Z,-24074.88
2022-08-09T13:25:16.002Z,-24077.81
2022-08-09T13:27:29.170Z,-24096.91
2022-08-09T13:30:02.523Z,-24074.88
2022-08-09T13:32:17.416Z,-24074.41
2022-08-09T13:34:23.745Z,-24070.34
2022-08-09T13:36:40.927Z,-24079.66
2022-08-09T13:38:57.752Z,-24094.88
2022-08-09T13:41:54.254Z,-24091.47
2022-08-09T13:43:35.613Z,-24075.94
2022-08-09T13:46:44.647Z,-24074.72
2022-08-09T13:48:04.890Z,-24090.84
2022-08-09T13:50:29.892Z,-24094.72
2022-08-09T13:52:34.523Z,-24066.63
2022-08-09T13:54:43.117Z,-24070.66
2022-08-09T13:57:00.302Z,-24084.34
2022-08-09T13:59:09.020Z,-24082.47
2022-08-09T14:01:55.737Z,-24073.78
2022-08-09T14:04:03.295Z,-24085.88
2022-08-09T14:06:02.427Z,-24075.00
2022-08-09T14:08:06.728Z,-24080.28
2022-08-09T14:10:17.209Z,-24070.34
2022-08-09T14:12:38.213Z,-24064.44
2022-08-09T14:14:44.139Z,-24068.34
2022-08-09T14:16:56.579Z,-24081.22
2022-08-09T14:19:01.475Z,-24075.63
2022-08-09T14:21:05.982Z,-24090.22
2022-08-09T14:23:08.833Z,-24090.06
2022-08-09T14:25:23.249Z,-24084.34
2022-08-09T14:27:34.293Z,-24078.13
2022-08-09T14:30:34.593Z,-24064.44
2022-08-09T14:32:19.894Z,-24070.66
2022-08-09T14:34:33.671Z,-24079.66
2022-08-09T14:36:42.910Z,-24089.63
2022-08-09T14:38:46.348Z,-24074.41
2022-08-09T14:41:01.430Z,-24090.22
2022-08-09T14:43:07.048Z,-24068.19
2022-08-09T14:46:56.032Z,-24063.50
2022-08-09T14:47:45.441Z,-24073.78
2022-08-09T14:50:02.284Z,-24066.94
2022-08-09T14:52:06.961Z,-24064.28
2022-08-09T14:54:10.229Z,-24068.81
2022-08-09T14:56:13.275Z,-24079.06
2022-08-09T14:58:16.107Z,-24072.84
2022-08-09T15:00:19.364Z,-24069.72
2022-08-09T15:02:22.421Z,-24075.94
2022-08-09T15:04:25.795Z,-24074.56
2022-08-09T15:06:28.624Z,-24078.13
2022-08-09T15:08:34.624Z,-24078.75
2022-08-09T15:10:37.350Z,-24074.41
2022-08-09T15:12:40.428Z,-24073.94
2022-08-09T15:14:47.883Z,-24069.13
2022-08-09T15:16:50.582Z,-24074.72
2022-08-09T15:18:53.253Z,-24079.38
2022-08-09T15:21:55.040Z,-24077.19
2022-08-09T15:24:00.874Z,-24073.31
2022-08-09T15:25:43.135Z,-24057.16
2022-08-09T15:27:47.965Z,-24064.00
2022-08-09T15:30:56.452Z,-24062.91
2022-08-09T15:32:28.672Z,-24059.47
2022-08-09T15:34:35.482Z,-24058.53
2022-08-09T15:36:38.399Z,-24061.03
2022-08-09T15:38:50.667Z,-24056.38
2022-08-09T15:40:54.737Z,-24062.59
2022-08-09T15:42:57.432Z,-24064.78
2022-08-09T15:45:03.291Z,-24060.41
2022-08-09T15:47:07.164Z,-24057.16
2022-08-09T15:49:21.831Z,-24062.28
2022-08-09T15:51:44.347Z,-24058.53
2022-08-09T15:54:03.389Z,-24060.25
2022-08-09T15:56:29.503Z,-24065.69
2022-08-09T15:58:32.559Z,-24061.97
2022-08-09T16:00:36.147Z,-24059.00
2022-08-09T16:02:41.481Z,-24062.91
2022-08-09T16:04:45.019Z,-24065.38
2022-08-09T16:06:52.351Z,-24059.16
2022-08-09T16:09:00.997Z,-24051.88
2022-08-09T16:11:06.371Z,-24055.44
2022-08-09T16:13:20.659Z,-24056.38
2022-08-09T16:16:04.533Z,-24044.69
2022-08-09T16:17:58.734Z,-24049.38
2022-08-09T16:20:04.901Z,-24046.41
2022-08-09T16:22:15.736Z,-24046.88
2022-08-09T16:24:33.083Z,-24046.56
2022-08-09T16:26:37.737Z,-24050.16
2022-08-09T16:28:41.843Z,-24051.72
2022-08-09T16:30:58.504Z,-24046.09
2022-08-09T16:33:11.463Z,-24047.66
2022-08-09T16:35:19.121Z,-24047.34
2022-08-09T16:37:56.123Z,-24050.00
2022-08-09T16:40:05.567Z,-24049.22
2022-08-09T16:42:08.831Z,-24045.34
2022-08-09T16:44:18.975Z,-24041.44
2022-08-09T16:46:24.331Z,-24042.84
2022-08-09T16:48:38.345Z,-24038.78
2022-08-09T16:50:59.183Z,-24040.50
2022-08-09T16:53:11.864Z,-24039.56
2022-08-09T16:55:15.710Z,-24034.75
2022-08-09T16:57:21.080Z,-24030.41
2022-08-09T16:59:25.194Z,-24030.56
2022-08-09T17:01:28.006Z,-24032.09
2022-08-09T17:03:36.620Z,-24031.78
2022-08-09T17:06:07.949Z,-24034.59
2022-08-09T17:08:42.702Z,-24033.66
2022-08-09T17:10:24.867Z,-24029.31
2022-08-09T17:12:27.716Z,-24025.72
2022-08-09T17:14:34.076Z,-24026.50
2022-08-09T17:16:38.553Z,-24023.69
2022-08-09T17:18:41.283Z,-24021.22
2022-08-09T17:20:52.524Z,-24023.06
2022-08-09T17:22:55.977Z,-24020.75
2022-08-09T17:25:03.100Z,-24020.75
2022-08-09T17:27:15.134Z,-24018.09
2022-08-09T17:29:20.593Z,-24019.34
2022-08-09T17:31:25.114Z,-24017.00
2022-08-09T17:33:36.691Z,-24017.47
2022-08-09T17:35:43.648Z,-24015.91
2022-08-09T17:38:11.747Z,-24017.16
2022-08-09T17:40:16.958Z,-24016.06
2022-08-09T17:42:42.069Z,-24011.88
2022-08-09T17:44:49.086Z,-24011.25
2022-08-09T17:46:55.656Z,-24011.25
2022-08-09T17:49:00.768Z,-24011.25
2022-08-09T17:51:09.897Z,-24007.97
2022-08-09T17:53:22.415Z,-24004.41
2022-08-09T17:55:25.477Z,-24005.31
2022-08-09T17:58:03.836Z,-24001.28
2022-08-09T18:00:09.515Z,-24001.28
2022-08-09T18:02:19.743Z,-23999.41
2022-08-09T18:04:25.696Z,-23998.78
2022-08-09T18:06:32.326Z,-23995.34
2022-08-09T18:08:35.863Z,-23990.38
2022-08-09T18:10:40.109Z,-23990.38
2022-08-09T18:13:39.643Z,-23991.16
2022-08-09T18:15:13.314Z,-23988.81
2022-08-09T18:18:01.526Z,-23986.00
2022-08-09T18:20:59.656Z,-23984.75
2022-08-09T18:22:05.434Z,-23984.91
2022-08-09T18:24:10.934Z,-23984.44
2022-08-09T18:26:15.703Z,-23981.00
2022-08-09T18:30:33.838Z,-23978.53
2022-08-09T18:30:48.258Z,-23976.97
2022-08-09T18:32:54.973Z,-23975.25
2022-08-09T18:34:57.793Z,-23974.16
2022-08-09T18:37:02.223Z,-23971.19
2022-08-09T18:39:07.269Z,-23964.16
2022-08-09T18:41:19.120Z,-23964.16
2022-08-09T18:43:35.223Z,-23962.94
2022-08-09T18:46:46.856Z,-23960.75
2022-08-09T18:48:02.361Z,-23962.75
2022-08-09T18:50:09.021Z,-23958.56
2022-08-09T18:52:12.980Z,-23955.59
2022-08-09T18:54:20.020Z,-23953.09
2022-08-09T18:56:31.720Z,-23954.34
2022-08-09T18:58:35.552Z,-23954.50
2022-08-09T19:00:41.859Z,-23954.97
2022-08-09T19:02:45.573Z,-23951.69
2022-08-09T19:05:04.065Z,-23945.91
2022-08-09T19:07:13.107Z,-23948.41
2022-08-09T19:09:34.091Z,-23944.19
2022-08-09T19:11:44.496Z,-23941.84
2022-08-09T19:13:51.586Z,-23946.06
2022-08-09T19:15:55.730Z,-23946.22
2022-08-09T19:17:59.380Z,-23946.22
2022-08-09T19:20:06.004Z,-23944.19
2022-08-09T19:22:11.959Z,-23944.34
2022-08-09T19:24:37.210Z,-23939.19
2022-08-09T19:26:40.587Z,-23937.63
2022-08-09T19:28:48.662Z,-23937.31
2022-08-09T19:30:51.770Z,-23938.88
2022-08-09T19:32:55.291Z,-23934.50
2022-08-09T19:34:58.493Z,-23934.03
2022-08-09T19:37:02.988Z,-23932.94
2022-08-09T19:39:06.020Z,-23932.47
2022-08-09T19:41:08.751Z,-23930.28
2022-08-09T19:43:16.483Z,-23924.22
2022-08-09T19:45:40.332Z,-23924.97
2022-08-09T19:47:45.388Z,-23923.25
2022-08-09T19:50:08.285Z,-23921.22
2022-08-09T19:52:13.280Z,-23923.41
2022-08-09T19:54:16.909Z,-23920.75
2022-08-09T19:56:28.561Z,-23921.22
2022-08-09T19:58:31.888Z,-23915.75
2022-08-09T20:00:35.388Z,-23914.34
2022-08-09T20:04:08.333Z,-23911.84
2022-08-09T20:05:02.161Z,-23912.94
2022-08-09T20:07:16.015Z,-23910.44
2022-08-09T20:09:44.602Z,-23910.75
2022-08-09T20:11:53.119Z,-23908.88
2022-08-09T20:13:57.092Z,-23910.44
2022-08-09T20:16:36.847Z,-23908.56
2022-08-09T20:18:27.678Z,-23902.63
2022-08-09T20:20:31.753Z,-23903.88
2022-08-09T20:22:37.908Z,-23913.25
2022-08-09T20:24:41.089Z,-23913.88
2022-08-09T20:26:43.811Z,-23912.63
2022-08-09T20:28:49.750Z,-23907.94
2022-08-09T20:30:52.774Z,-23909.03
2022-08-09T20:32:57.860Z,-23908.56
2022-08-09T20:35:01.658Z,-23908.25
2022-08-09T20:37:05.187Z,-23905.13
2022-08-09T20:39:28.432Z,-23899.50
2022-08-09T20:41:37.247Z,-23897.63
2022-08-09T20:43:44.739Z,-23893.88
2022-08-09T20:46:00.492Z,-23892.94
2022-08-09T20:48:11.033Z,-23893.72
2022-08-09T20:50:15.061Z,-23894.66
2022-08-09T20:52:36.772Z,-23896.69
2022-08-09T20:54:52.552Z,-23896.53
2022-08-09T20:56:55.695Z,-23895.13
2022-08-09T20:58:59.074Z,-23894.97
2022-08-09T21:01:32.276Z,-23894.03
2022-08-09T21:03:28.564Z,-23893.09
2022-08-09T21:05:51.069Z,-23893.88
2022-08-09T21:08:01.569Z,-23889.66
2022-08-09T21:10:06.078Z,-23889.81
2022-08-09T21:14:14.201Z,-23888.88
2022-08-09T21:16:19.776Z,-23888.88
2022-08-09T21:18:27.442Z,-23887.31
2022-08-09T21:20:30.979Z,-23889.81
2022-08-09T21:22:39.230Z,-23887.63
2022-08-09T21:24:56.180Z,-23883.84
2022-08-09T21:27:51.269Z,-23886.53
2022-08-09T21:29:23.933Z,-23885.41
2022-08-09T21:31:49.405Z,-23884.31
2022-08-09T21:33:52.808Z,-23887.44
2022-08-09T21:35:55.885Z,-23887.94
2022-08-09T21:38:02.681Z,-23886.69
2022-08-09T21:40:08.149Z,-23888.25
2022-08-09T21:42:15.097Z,-23884.03
2022-08-09T21:44:32.725Z,-23886.38
2022-08-09T21:46:37.781Z,-23885.75
2022-08-09T21:48:42.783Z,-23882.13
2022-08-09T21:50:51.941Z,-23882.28
2022-08-09T21:52:55.931Z,-23881.66
2022-08-09T21:55:04.451Z,-23881.34
2022-08-09T21:57:07.597Z,-23878.53
2022-08-09T21:59:42.820Z,-23880.41
2022-08-09T22:02:01.084Z,-23878.22
2022-08-09T22:04:04.838Z,-23877.28
2022-08-09T22:06:08.027Z,-23874.94
2022-08-09T22:08:14.695Z,-23874.47
2022-08-09T22:10:22.785Z,-23874.78
2022-08-09T22:12:30.835Z,-23876.03
2022-08-09T22:14:35.574Z,-23873.84
2022-08-09T22:16:38.880Z,-23874.16
2022-08-09T22:18:52.847Z,-23872.28
2022-08-09T22:20:57.704Z,-23873.53
2022-08-09T22:23:00.517Z,-23872.91
2022-08-09T22:26:06.263Z,-23871.66
2022-08-09T22:27:25.870Z,-23872.28
2022-08-09T22:29:38.371Z,-23870.72
2022-08-09T22:31:57.360Z,-23866.94
2022-08-09T22:34:00.627Z,-23866.00
2022-08-09T22:36:03.898Z,-23865.06
2022-08-09T22:38:07.968Z,-23862.09
2022-08-09T22:40:18.275Z,-23863.66
2022-08-09T22:42:23.644Z,-23860.69
2022-08-09T22:44:29.816Z,-23861.00
2022-08-09T22:48:10.181Z,-23856.63
2022-08-09T22:49:00.056Z,-23855.38
2022-08-09T22:51:10.783Z,-23853.47
2022-08-09T22:53:20.704Z,-23853.47
2022-08-09T22:55:23.615Z,-23851.13
2022-08-09T22:57:35.638Z,-23853.78
2022-08-09T22:59:55.675Z,-23852.69
2022-08-09T23:02:01.265Z,-23850.66
2022-08-09T23:04:07.317Z,-23848.78
2022-08-09T23:06:10.195Z,-23849.72
2022-08-09T23:08:35.060Z,-23850.19
2022-08-09T23:10:43.078Z,-23849.09
2022-08-09T23:12:46.429Z,-23847.38
2022-08-09T23:14:49.096Z,-23847.38
2022-08-09T23:16:56.790Z,-23845.03
2022-08-09T23:18:59.433Z,-23844.72
2022-08-09T23:21:03.459Z,-23843.44
2022-08-09T23:23:06.548Z,-23843.63
2022-08-09T23:25:10.874Z,-23840.47
2022-08-09T23:27:13.573Z,-23838.75
2022-08-09T23:29:16.242Z,-23837.50
2022-08-09T23:31:18.875Z,-23838.28
2022-08-09T23:33:21.598Z,-23836.56
2022-08-09T23:35:24.608Z,-23835.00
2022-08-09T23:37:28.582Z,-23834.22
2022-08-09T23:39:31.346Z,-23831.38
2022-08-09T23:41:34.134Z,-23829.97
2022-08-09T23:43:36.771Z,-23832.16
2022-08-09T23:45:39.721Z,-23829.66
2022-08-09T23:47:42.518Z,-23828.09
2022-08-09T23:49:45.148Z,-23828.72
2022-08-09T23:51:47.796Z,-23827.00
2022-08-09T23:53:52.572Z,-23825.13
2022-08-09T23:55:57.910Z,-23825.59
2022-08-09T23:58:08.549Z,-23823.69
